createdAt,value
2018-05-14T00:00:25.421Z,985.26
2018-05-14T00:01:25.612Z,985.24
2018-05-14T00:02:25.784Z,985.21
2018-05-14T00:03:25.974Z,985.25
2018-05-14T00:04:26.155Z,985.20
2018-05-14T00:05:26.353Z,985.23
2018-05-14T00:06:26.545Z,985.22
2018-05-14T00:07:26.730Z,985.20
2018-05-14T00:08:26.913Z,985.21
2018-05-14T00:09:27.087Z,985.17
2018-05-14T00:10:27.283Z,985.25
2018-05-14T00:11:27.460Z,985.28
2018-05-14T00:12:27.654Z,985.20
2018-05-14T00:13:27.847Z,985.22
2018-05-14T00:14:28.039Z,985.27
2018-05-14T00:15:28.231Z,985.24
2018-05-14T00:16:28.426Z,985.23
2018-05-14T00:17:28.606Z,985.28
2018-05-14T00:18:28.788Z,985.24
2018-05-14T00:19:28.976Z,985.25
2018-05-14T00:20:29.155Z,985.25
2018-05-14T00:21:29.337Z,985.28
2018-05-14T00:22:29.520Z,985.23
2018-05-14T00:23:29.703Z,985.22
2018-05-14T00:24:29.888Z,985.25
2018-05-14T00:25:30.070Z,985.20
2018-05-14T00:26:30.248Z,985.22
2018-05-14T00:27:30.427Z,985.21
2018-05-14T00:28:30.624Z,985.19
2018-05-14T00:29:30.807Z,985.18
2018-05-14T00:30:30.992Z,985.18
2018-05-14T00:31:31.167Z,985.13
2018-05-14T00:32:31.349Z,985.13
2018-05-14T00:33:31.531Z,985.19
2018-05-14T00:34:31.715Z,985.13
2018-05-14T00:35:31.904Z,985.16
2018-05-14T00:36:32.080Z,985.18
2018-05-14T00:37:32.276Z,985.21
2018-05-14T00:38:32.438Z,985.18
2018-05-14T00:39:32.621Z,985.18
2018-05-14T00:40:32.803Z,985.23
2018-05-14T00:41:32.982Z,985.22
2018-05-14T00:42:33.149Z,985.20
2018-05-14T00:43:33.349Z,985.24
2018-05-14T00:44:33.529Z,985.23
2018-05-14T00:45:33.715Z,985.20
2018-05-14T00:46:33.890Z,985.18
2018-05-14T00:47:34.078Z,985.20
2018-05-14T00:48:34.265Z,985.19
2018-05-14T00:49:34.499Z,985.15
2018-05-14T00:50:34.629Z,985.18
2018-05-14T00:51:34.816Z,985.20
2018-05-14T00:52:35.005Z,985.20
2018-05-14T00:53:35.189Z,985.15
2018-05-14T00:54:35.372Z,985.21
2018-05-14T00:55:35.558Z,985.15
2018-05-14T00:56:35.733Z,985.17
2018-05-14T00:57:35.920Z,985.22
2018-05-14T00:58:36.111Z,985.15
2018-05-14T00:59:36.299Z,985.15
2018-05-14T01:00:36.479Z,985.20
2018-05-14T01:01:36.666Z,985.17
2018-05-14T01:02:36.848Z,985.19
2018-05-14T01:03:37.035Z,985.17
2018-05-14T01:04:37.222Z,985.21
2018-05-14T01:05:37.421Z,985.21
2018-05-14T01:06:37.683Z,985.17
2018-05-14T01:07:37.775Z,985.21
2018-05-14T01:08:37.961Z,985.18
2018-05-14T01:09:38.142Z,985.23
2018-05-14T01:10:38.322Z,985.19
2018-05-14T01:11:38.505Z,985.20
2018-05-14T01:12:38.689Z,985.23
2018-05-14T01:13:38.875Z,985.25
2018-05-14T01:14:39.049Z,985.25
2018-05-14T01:15:39.235Z,985.25
2018-05-14T01:16:39.412Z,985.20
2018-05-14T01:17:39.584Z,985.18
2018-05-14T01:18:39.761Z,985.20
2018-05-14T01:19:39.936Z,985.19
2018-05-14T01:20:40.117Z,985.19
2018-05-14T01:21:40.308Z,985.20
2018-05-14T01:22:40.476Z,985.18
2018-05-14T01:23:40.658Z,985.17
2018-05-14T01:24:40.836Z,985.16
2018-05-14T01:25:41.013Z,985.17
2018-05-14T01:26:41.199Z,985.22
2018-05-14T01:27:41.379Z,985.20
2018-05-14T01:28:41.559Z,985.20
2018-05-14T01:29:41.741Z,985.20
2018-05-14T01:30:41.916Z,985.17
2018-05-14T01:31:42.107Z,985.15
2018-05-14T01:32:42.292Z,985.17
2018-05-14T01:33:42.482Z,985.17
2018-05-14T01:34:42.680Z,985.17
2018-05-14T01:35:42.856Z,985.15
2018-05-14T01:36:43.057Z,985.15
2018-05-14T01:37:43.257Z,985.14
2018-05-14T01:38:43.452Z,985.14
2018-05-14T01:39:43.624Z,985.14
2018-05-14T01:40:43.802Z,985.16
2018-05-14T01:41:43.978Z,985.18
2018-05-14T01:42:44.162Z,985.13
2018-05-14T01:43:44.340Z,985.13
2018-05-14T01:44:44.512Z,985.13
2018-05-14T01:45:44.698Z,985.13
2018-05-14T01:46:44.877Z,985.16
2018-05-14T01:47:45.065Z,985.18
2018-05-14T01:48:45.236Z,985.20
2018-05-14T01:49:45.415Z,985.16
2018-05-14T01:50:45.587Z,985.16
2018-05-14T01:51:45.775Z,985.22
2018-05-14T01:52:45.952Z,985.23
2018-05-14T01:53:46.137Z,985.21
2018-05-14T01:54:46.319Z,985.22
2018-05-14T01:55:46.492Z,985.18
2018-05-14T01:56:46.667Z,985.18
2018-05-14T01:57:46.846Z,985.18
2018-05-14T01:58:47.021Z,985.17
2018-05-14T01:59:47.203Z,985.18
2018-05-14T02:00:47.398Z,985.14
2018-05-14T02:01:47.571Z,985.13
2018-05-14T02:02:47.746Z,985.16
2018-05-14T02:03:47.935Z,985.11
2018-05-14T02:04:48.118Z,985.11
2018-05-14T02:05:48.292Z,985.16
2018-05-14T02:06:48.477Z,985.14
2018-05-14T02:07:48.660Z,985.15
2018-05-14T02:08:48.841Z,985.16
2018-05-14T02:09:49.029Z,985.16
2018-05-14T02:10:49.214Z,985.17
2018-05-14T02:11:49.401Z,985.18
2018-05-14T02:12:49.583Z,985.17
2018-05-14T02:13:49.758Z,985.14
2018-05-14T02:14:49.944Z,985.11
2018-05-14T02:15:50.182Z,985.09
2018-05-14T02:16:50.223Z,985.13
2018-05-14T02:17:50.407Z,985.14
2018-05-14T02:18:50.590Z,985.10
2018-05-14T02:19:50.769Z,985.14
2018-05-14T02:20:50.954Z,985.13
2018-05-14T02:21:51.124Z,985.14
2018-05-14T02:22:51.304Z,985.12
2018-05-14T02:23:51.484Z,985.11
2018-05-14T02:24:51.658Z,985.08
2018-05-14T02:25:51.835Z,985.07
2018-05-14T02:26:52.018Z,985.07
2018-05-14T02:27:52.194Z,985.05
2018-05-14T02:28:52.377Z,985.03
2018-05-14T02:29:52.563Z,985.06
2018-05-14T02:30:52.749Z,985.05
2018-05-14T02:31:52.937Z,985.03
2018-05-14T02:32:53.115Z,985.07
2018-05-14T02:33:53.300Z,985.05
2018-05-14T02:34:53.472Z,985.09
2018-05-14T02:35:53.653Z,985.10
2018-05-14T02:36:53.835Z,985.06
2018-05-14T02:37:54.022Z,985.07
2018-05-14T02:38:54.208Z,985.05
2018-05-14T02:39:54.383Z,985.09
2018-05-14T02:40:54.571Z,985.08
2018-05-14T02:41:54.757Z,985.08
2018-05-14T02:42:54.939Z,985.06
2018-05-14T02:43:55.121Z,985.03
2018-05-14T02:44:55.307Z,985.07
2018-05-14T02:45:55.496Z,985.06
2018-05-14T02:46:55.681Z,985.09
2018-05-14T02:47:55.858Z,985.10
2018-05-14T02:48:56.050Z,985.09
2018-05-14T02:49:56.225Z,985.12
2018-05-14T02:50:56.407Z,985.15
2018-05-14T02:51:56.591Z,985.15
2018-05-14T02:52:56.771Z,985.17
2018-05-14T02:53:56.945Z,985.21
2018-05-14T02:54:57.127Z,985.19
2018-05-14T02:55:57.312Z,985.19
2018-05-14T02:56:57.486Z,985.22
2018-05-14T02:57:57.673Z,985.22
2018-05-14T02:58:57.854Z,985.20
2018-05-14T02:59:58.029Z,985.25
2018-05-14T03:00:58.209Z,985.21
2018-05-14T03:01:58.403Z,985.21
2018-05-14T03:02:58.586Z,985.27
2018-05-14T03:03:58.767Z,985.20
2018-05-14T03:04:58.964Z,985.26
2018-05-14T03:05:59.117Z,985.22
2018-05-14T03:06:59.300Z,985.26
2018-05-14T03:07:59.491Z,985.26
2018-05-14T03:08:59.672Z,985.24
2018-05-14T03:09:59.858Z,985.28
2018-05-14T03:11:00.040Z,985.28
2018-05-14T03:12:00.219Z,985.33
2018-05-14T03:13:00.394Z,985.31
2018-05-14T03:14:00.568Z,985.33
2018-05-14T03:15:00.752Z,985.33
2018-05-14T03:16:00.946Z,985.33
2018-05-14T03:17:01.137Z,985.35
2018-05-14T03:18:01.322Z,985.38
2018-05-14T03:19:01.512Z,985.37
2018-05-14T03:20:01.693Z,985.37
2018-05-14T03:21:01.921Z,985.37
2018-05-14T03:22:02.055Z,985.36
2018-05-14T03:23:02.242Z,985.35
2018-05-14T03:24:02.425Z,985.40
2018-05-14T03:25:02.606Z,985.39
2018-05-14T03:26:02.788Z,985.40
2018-05-14T03:27:02.974Z,985.44
2018-05-14T03:28:03.155Z,985.38
2018-05-14T03:29:03.338Z,985.38
2018-05-14T03:30:03.516Z,985.36
2018-05-14T03:31:03.701Z,985.37
2018-05-14T03:32:03.879Z,985.39
2018-05-14T03:33:04.061Z,985.33
2018-05-14T03:34:04.243Z,985.38
2018-05-14T03:35:04.424Z,985.39
2018-05-14T03:36:04.596Z,985.38
2018-05-14T03:37:04.777Z,985.35
2018-05-14T03:38:04.958Z,985.38
2018-05-14T03:39:05.153Z,985.36
2018-05-14T03:40:05.328Z,985.38
2018-05-14T03:41:05.505Z,985.40
2018-05-14T03:42:05.688Z,985.42
2018-05-14T03:43:05.873Z,985.41
2018-05-14T03:44:06.054Z,985.43
2018-05-14T03:45:06.250Z,985.42
2018-05-14T03:46:06.446Z,985.43
2018-05-14T03:47:06.630Z,985.47
2018-05-14T03:48:06.848Z,985.50
2018-05-14T03:49:07.042Z,985.50
2018-05-14T03:50:07.247Z,985.46
2018-05-14T03:51:07.444Z,985.46
2018-05-14T03:52:07.647Z,985.49
2018-05-14T03:53:07.861Z,985.48
2018-05-14T03:54:08.070Z,985.51
2018-05-14T03:55:08.413Z,985.54
2018-05-14T03:56:08.422Z,985.54
2018-05-14T03:57:08.612Z,985.48
2018-05-14T03:58:08.870Z,985.54
2018-05-14T03:59:08.929Z,985.50
2018-05-14T04:00:09.157Z,985.51
2018-05-14T04:01:09.222Z,985.49
2018-05-14T04:02:09.408Z,985.49
2018-05-14T04:03:09.594Z,985.47
2018-05-14T04:04:09.795Z,985.51
2018-05-14T04:05:09.988Z,985.53
2018-05-14T04:06:10.183Z,985.48
2018-05-14T04:07:10.372Z,985.52
2018-05-14T04:08:10.565Z,985.49
2018-05-14T04:09:10.842Z,985.53
2018-05-14T04:10:10.924Z,985.50
2018-05-14T04:11:11.106Z,985.55
2018-05-14T04:12:11.300Z,985.54
2018-05-14T04:13:11.491Z,985.51
2018-05-14T04:14:11.700Z,985.54
2018-05-14T04:15:11.882Z,985.51
2018-05-14T04:16:12.072Z,985.55
2018-05-14T04:17:12.251Z,985.58
2018-05-14T04:18:12.435Z,985.60
2018-05-14T04:19:12.610Z,985.54
2018-05-14T04:20:12.795Z,985.60
2018-05-14T04:21:12.975Z,985.62
2018-05-14T04:22:13.157Z,985.60
2018-05-14T04:23:13.405Z,985.62
2018-05-14T04:24:13.559Z,985.59
2018-05-14T04:25:13.743Z,985.62
2018-05-14T04:26:13.939Z,985.63
2018-05-14T04:27:14.147Z,985.59
2018-05-14T04:28:14.330Z,985.60
2018-05-14T04:29:14.553Z,985.64
2018-05-14T04:30:14.674Z,985.62
2018-05-14T04:31:14.825Z,985.64
2018-05-14T04:32:15.019Z,985.65
2018-05-14T04:33:15.203Z,985.65
2018-05-14T04:34:15.418Z,985.64
2018-05-14T04:35:15.534Z,985.62
2018-05-14T04:36:15.710Z,985.68
2018-05-14T04:37:15.914Z,985.65
2018-05-14T04:38:16.107Z,985.65
2018-05-14T04:39:16.305Z,985.71
2018-05-14T04:40:16.489Z,985.73
2018-05-14T04:41:16.675Z,985.74
2018-05-14T04:42:16.872Z,985.71
2018-05-14T04:43:17.065Z,985.70
2018-05-14T04:44:17.268Z,985.74
2018-05-14T04:45:17.451Z,985.76
2018-05-14T04:46:17.664Z,985.73
2018-05-14T04:47:17.848Z,985.71
2018-05-14T04:48:18.049Z,985.72
2018-05-14T04:49:18.222Z,985.71
2018-05-14T04:50:18.407Z,985.78
2018-05-14T04:51:18.637Z,985.78
2018-05-14T04:52:18.820Z,985.79
2018-05-14T04:53:19.009Z,985.82
2018-05-14T04:54:19.202Z,985.80
2018-05-14T04:55:19.521Z,985.76
2018-05-14T04:56:19.565Z,985.78
2018-05-14T04:57:19.775Z,985.80
2018-05-14T04:58:19.956Z,985.83
2018-05-14T04:59:20.244Z,985.84
2018-05-14T05:00:20.350Z,985.81
2018-05-14T05:01:20.531Z,985.82
2018-05-14T05:02:20.791Z,985.83
2018-05-14T05:03:20.843Z,985.85
2018-05-14T05:04:21.075Z,985.84
2018-05-14T05:05:21.259Z,985.85
2018-05-14T05:06:21.465Z,985.87
2018-05-14T05:07:24.456Z,985.87
2018-05-14T05:08:21.798Z,985.89
2018-05-14T05:09:21.998Z,985.93
2018-05-14T05:10:22.428Z,985.91
2018-05-14T05:11:22.345Z,985.96
2018-05-14T05:12:22.546Z,985.97
2018-05-14T05:13:22.737Z,985.98
2018-05-14T05:14:22.926Z,986.00
2018-05-14T05:15:23.231Z,985.96
2018-05-14T05:16:23.298Z,985.98
2018-05-14T05:17:23.507Z,986.00
2018-05-14T05:18:24.209Z,986.02
2018-05-14T05:19:23.818Z,986.02
2018-05-14T05:20:24.002Z,986.05
2018-05-14T05:21:24.240Z,986.07
2018-05-14T05:22:24.316Z,986.10
2018-05-14T05:23:24.594Z,986.09
2018-05-14T05:24:24.666Z,986.08
2018-05-14T05:25:24.877Z,986.07
2018-05-14T05:26:24.963Z,986.07
2018-05-14T05:27:25.144Z,986.07
2018-05-14T05:28:25.467Z,986.10
2018-05-14T05:29:25.485Z,986.09
2018-05-14T05:30:25.679Z,986.12
2018-05-14T05:31:25.859Z,986.12
2018-05-14T05:32:26.050Z,986.13
2018-05-14T05:33:26.246Z,986.13
2018-05-14T05:34:26.469Z,986.14
2018-05-14T05:35:26.664Z,986.17
2018-05-14T05:36:26.878Z,986.16
2018-05-14T05:37:27.056Z,986.10
2018-05-14T05:38:27.241Z,986.15
2018-05-14T05:39:27.429Z,986.21
2018-05-14T05:40:27.613Z,986.18
2018-05-14T05:41:27.803Z,986.17
2018-05-14T05:42:27.991Z,986.21
2018-05-14T05:43:28.167Z,986.20
2018-05-14T05:44:28.363Z,986.18
2018-05-14T05:45:28.599Z,986.21
2018-05-14T05:46:28.661Z,986.14
2018-05-14T05:47:28.860Z,986.22
2018-05-14T05:48:29.046Z,986.23
2018-05-14T05:49:29.240Z,986.24
2018-05-14T05:50:29.413Z,986.34
2018-05-14T05:51:29.613Z,986.63
2018-05-14T05:52:29.847Z,987.03
2018-05-14T05:53:30.038Z,987.27
2018-05-14T05:54:30.136Z,987.32
2018-05-14T05:55:30.323Z,987.42
2018-05-14T05:56:30.497Z,987.45
2018-05-14T05:57:30.686Z,987.52
2018-05-14T05:58:30.866Z,987.54
2018-05-14T05:59:31.052Z,987.54
2018-05-14T06:00:31.231Z,987.57
2018-05-14T06:01:31.411Z,987.57
2018-05-14T06:02:31.604Z,987.65
2018-05-14T06:03:31.789Z,987.60
2018-05-14T06:04:31.976Z,987.57
2018-05-14T06:05:32.162Z,987.51
2018-05-14T06:06:32.353Z,987.54
2018-05-14T06:07:32.555Z,987.50
2018-05-14T06:08:32.753Z,987.51
2018-05-14T06:09:33.044Z,987.20
2018-05-14T06:10:33.130Z,986.74
2018-05-14T06:11:33.441Z,986.59
2018-05-14T06:12:33.527Z,986.59
2018-05-14T06:13:33.741Z,986.61
2018-05-14T06:14:33.934Z,986.54
2018-05-14T06:15:34.194Z,986.59
2018-05-14T06:16:34.354Z,986.88
2018-05-14T06:17:34.558Z,986.67
2018-05-14T06:18:34.776Z,986.64
2018-05-14T06:19:34.971Z,986.55
2018-05-14T06:20:35.209Z,986.58
2018-05-14T06:21:35.317Z,986.58
2018-05-14T06:22:35.533Z,986.64
2018-05-14T06:23:35.743Z,986.78
2018-05-14T06:24:35.933Z,986.93
2018-05-14T06:25:36.122Z,986.68
2018-05-14T06:26:36.364Z,986.80
2018-05-14T06:27:36.568Z,987.05
2018-05-14T06:28:36.758Z,986.80
2018-05-14T06:29:36.956Z,986.70
2018-05-14T06:30:37.144Z,986.79
2018-05-14T06:31:37.333Z,986.74
2018-05-14T06:32:37.513Z,986.75
2018-05-14T06:33:37.733Z,986.97
2018-05-14T06:34:37.927Z,986.67
2018-05-14T06:35:38.145Z,986.72
2018-05-14T06:36:38.315Z,986.86
2018-05-14T06:37:38.497Z,987.37
2018-05-14T06:38:38.697Z,986.88
2018-05-14T06:39:38.876Z,987.44
2018-05-14T06:40:39.073Z,987.75
2018-05-14T06:41:39.252Z,987.68
2018-05-14T06:42:39.451Z,987.69
2018-05-14T06:43:39.634Z,987.69
2018-05-14T06:44:39.830Z,987.65
2018-05-14T06:45:40.023Z,987.67
2018-05-14T06:46:40.205Z,987.68
2018-05-14T06:47:40.408Z,987.61
2018-05-14T06:48:40.616Z,987.60
2018-05-14T06:49:40.777Z,987.60
2018-05-14T06:50:40.967Z,987.54
2018-05-14T06:51:41.153Z,987.57
2018-05-14T06:52:41.352Z,987.58
2018-05-14T06:53:41.528Z,987.67
2018-05-14T06:54:41.717Z,987.58
2018-05-14T06:55:41.911Z,987.55
2018-05-14T06:56:42.094Z,987.54
2018-05-14T06:57:42.281Z,987.56
2018-05-14T06:58:42.483Z,987.47
2018-05-14T06:59:42.677Z,987.57
2018-05-14T07:00:42.866Z,987.63
2018-05-14T07:01:45.424Z,987.66
2018-05-14T07:02:43.240Z,987.59
2018-05-14T07:03:43.539Z,987.48
2018-05-14T07:04:43.619Z,987.12
2018-05-14T07:05:43.813Z,986.85
2018-05-14T07:06:44.085Z,986.79
2018-05-14T07:07:44.569Z,986.60
2018-05-14T07:08:44.990Z,986.64
2018-05-14T07:09:45.229Z,986.67
2018-05-14T07:10:45.043Z,986.72
2018-05-14T07:11:45.182Z,986.92
2018-05-14T07:12:45.418Z,986.99
2018-05-14T07:13:45.645Z,987.36
2018-05-14T07:14:45.693Z,987.60
2018-05-14T07:15:45.964Z,988.08
2018-05-14T07:16:46.081Z,988.06
2018-05-14T07:17:46.220Z,988.13
2018-05-14T07:18:46.162Z,987.95
2018-05-14T07:19:46.614Z,988.03
2018-05-14T07:20:46.756Z,987.61
2018-05-14T07:21:47.057Z,987.28
2018-05-14T07:22:47.026Z,987.12
2018-05-14T07:23:47.051Z,987.09
2018-05-14T07:24:47.550Z,987.34
2018-05-14T07:25:47.630Z,987.32
2018-05-14T07:26:48.068Z,987.04
2018-05-14T07:27:47.967Z,987.28
2018-05-14T07:28:48.107Z,987.27
2018-05-14T07:29:48.167Z,987.40
2018-05-14T07:30:48.462Z,987.48
2018-05-14T07:31:48.782Z,987.51
2018-05-14T07:32:49.730Z,987.38
2018-05-14T07:33:49.271Z,987.45
2018-05-14T07:34:51.056Z,987.51
2018-05-14T07:35:52.411Z,987.59
2018-05-14T07:36:52.760Z,987.68
2018-05-14T07:37:51.442Z,987.62
2018-05-14T07:38:50.545Z,987.83
2018-05-14T07:39:50.979Z,987.93
2018-05-14T07:40:51.944Z,987.98
2018-05-14T07:41:53.208Z,987.99
2018-05-14T07:42:50.928Z,987.96
2018-05-14T07:43:51.794Z,988.02
2018-05-14T07:44:52.016Z,988.02
2018-05-14T07:45:51.877Z,988.02
2018-05-14T07:46:53.470Z,987.97
2018-05-14T07:47:54.460Z,987.98
2018-05-14T07:48:52.873Z,987.95
2018-05-14T07:49:52.374Z,987.92
2018-05-14T07:50:52.782Z,987.98
2018-05-14T07:51:52.430Z,987.95
2018-05-14T07:52:54.375Z,987.97
2018-05-14T07:53:55.339Z,987.98
2018-05-14T07:54:53.029Z,987.95
2018-05-14T07:55:54.297Z,987.97
2018-05-14T07:56:54.180Z,987.98
2018-05-14T07:57:54.228Z,987.99
2018-05-14T07:58:53.569Z,987.96
2018-05-14T07:59:54.618Z,987.93
2018-05-14T08:00:55.385Z,987.93
2018-05-14T08:01:54.414Z,987.88
2018-05-14T08:02:54.273Z,987.86
2018-05-14T08:03:55.556Z,987.83
2018-05-14T08:04:54.117Z,987.78
2018-05-14T08:05:54.297Z,987.69
2018-05-14T08:06:54.492Z,987.68
2018-05-14T08:07:54.702Z,987.71
2018-05-14T08:08:55.738Z,987.63
2018-05-14T08:09:55.179Z,987.66
2018-05-14T08:10:55.258Z,987.64
2018-05-14T08:11:55.472Z,987.61
2018-05-14T08:12:55.692Z,987.64
2018-05-14T08:13:55.891Z,987.65
2018-05-14T08:14:56.080Z,987.67
2018-05-14T08:15:56.280Z,987.69
2018-05-14T08:16:56.472Z,987.69
2018-05-14T08:17:56.669Z,987.67
2018-05-14T08:18:56.869Z,987.63
2018-05-14T08:19:57.063Z,987.66
2018-05-14T08:20:57.256Z,987.64
2018-05-14T08:21:57.458Z,987.65
2018-05-14T08:22:57.838Z,987.61
2018-05-14T08:23:57.827Z,987.61
2018-05-14T08:24:59.193Z,987.55
2018-05-14T08:25:58.376Z,987.60
2018-05-14T08:26:58.442Z,987.56
2018-05-14T08:28:01.914Z,987.61
2018-05-14T08:28:59.891Z,987.55
2018-05-14T08:29:59.047Z,987.57
2018-05-14T08:30:59.238Z,987.58
2018-05-14T08:31:59.422Z,987.56
2018-05-14T08:32:59.639Z,987.60
2018-05-14T08:33:59.847Z,987.59
2018-05-14T08:35:00.044Z,987.61
2018-05-14T08:36:00.243Z,987.65
2018-05-14T08:37:00.450Z,987.61
2018-05-14T08:38:00.654Z,987.65
2018-05-14T08:39:03.965Z,987.61
2018-05-14T08:40:03.254Z,987.60
2018-05-14T08:41:02.633Z,987.60
2018-05-14T08:42:04.315Z,987.57
2018-05-14T08:43:03.107Z,987.60
2018-05-14T08:44:04.708Z,987.60
2018-05-14T08:45:03.802Z,987.63
2018-05-14T08:46:04.023Z,987.61
2018-05-14T08:47:04.257Z,987.58
2018-05-14T08:48:04.072Z,987.64
2018-05-14T08:49:04.758Z,987.60
2018-05-14T08:50:03.599Z,987.60
2018-05-14T08:51:02.850Z,987.59
2018-05-14T08:52:03.933Z,987.62
2018-05-14T08:53:04.824Z,987.68
2018-05-14T08:54:04.882Z,987.62
2018-05-14T08:55:06.422Z,987.61
2018-05-14T08:56:05.151Z,987.65
2018-05-14T08:57:05.114Z,987.67
2018-05-14T08:58:05.632Z,987.65
2018-05-14T08:59:06.791Z,987.67
2018-05-14T09:00:05.393Z,987.66
2018-05-14T09:01:06.693Z,987.66
2018-05-14T09:02:07.232Z,987.66
2018-05-14T09:03:08.997Z,987.66
2018-05-14T09:04:08.137Z,987.67
2018-05-14T09:05:07.392Z,987.64
2018-05-14T09:06:07.810Z,987.66
2018-05-14T09:07:05.855Z,987.67
2018-05-14T09:08:08.187Z,987.71
2018-05-14T09:09:08.196Z,987.71
2018-05-14T09:10:08.228Z,987.71
2018-05-14T09:11:09.199Z,987.70
2018-05-14T09:12:09.084Z,987.71
2018-05-14T09:13:07.845Z,987.72
2018-05-14T09:14:07.306Z,987.70
2018-05-14T09:15:07.558Z,987.68
2018-05-14T09:16:11.230Z,987.69
2018-05-14T09:17:07.788Z,987.72
2018-05-14T09:18:09.044Z,987.69
2018-05-14T09:19:07.973Z,987.69
2018-05-14T09:20:08.151Z,987.75
2018-05-14T09:21:08.352Z,987.73
2018-05-14T09:22:08.550Z,987.76
2018-05-14T09:23:08.749Z,987.70
2018-05-14T09:24:08.937Z,987.71
2018-05-14T09:25:09.134Z,987.72
2018-05-14T09:26:10.947Z,987.69
2018-05-14T09:27:11.466Z,987.74
2018-05-14T09:28:12.479Z,987.70
2018-05-14T09:29:12.119Z,987.76
2018-05-14T09:30:10.878Z,987.76
2018-05-14T09:31:13.223Z,987.72
2018-05-14T09:32:11.694Z,987.77
2018-05-14T09:33:12.553Z,987.73
2018-05-14T09:34:13.260Z,987.78
2018-05-14T09:35:13.474Z,987.79
2018-05-14T09:36:14.045Z,987.78
2018-05-14T09:37:13.282Z,987.82
2018-05-14T09:38:12.907Z,987.80
2018-05-14T09:39:14.175Z,987.78
2018-05-14T09:40:14.007Z,987.75
2018-05-14T09:41:14.457Z,987.79
2018-05-14T09:42:13.983Z,987.83
2018-05-14T09:43:14.288Z,987.80
2018-05-14T09:44:14.002Z,987.81
2018-05-14T09:45:14.075Z,987.81
2018-05-14T09:46:14.476Z,987.78
2018-05-14T09:47:16.046Z,987.74
2018-05-14T09:48:13.464Z,987.76
2018-05-14T09:49:13.664Z,987.79
2018-05-14T09:50:13.857Z,987.76
2018-05-14T09:51:14.054Z,987.71
2018-05-14T09:52:14.256Z,987.77
2018-05-14T09:53:14.497Z,987.76
2018-05-14T09:54:14.698Z,987.73
2018-05-14T09:55:14.908Z,987.72
2018-05-14T09:56:15.107Z,987.73
2018-05-14T09:57:15.374Z,987.73
2018-05-14T09:58:15.491Z,987.82
2018-05-14T09:59:15.670Z,987.81
2018-05-14T10:00:16.037Z,987.82
2018-05-14T10:01:16.070Z,987.81
2018-05-14T10:02:16.268Z,987.78
2018-05-14T10:03:16.472Z,987.77
2018-05-14T10:04:16.672Z,987.70
2018-05-14T10:05:16.865Z,987.76
2018-05-14T10:06:17.072Z,987.73
2018-05-14T10:07:17.286Z,987.75
2018-05-14T10:08:17.498Z,987.81
2018-05-14T10:09:17.754Z,987.75
2018-05-14T10:10:17.885Z,987.74
2018-05-14T10:11:18.079Z,987.76
2018-05-14T10:12:18.282Z,987.71
2018-05-14T10:13:18.481Z,987.73
2018-05-14T10:14:18.670Z,987.65
2018-05-14T10:15:18.865Z,987.68
2018-05-14T10:16:19.053Z,987.63
2018-05-14T10:17:19.246Z,987.58
2018-05-14T10:18:19.436Z,987.54
2018-05-14T10:19:19.642Z,987.63
2018-05-14T10:20:19.841Z,987.61
2018-05-14T10:21:20.032Z,987.61
2018-05-14T10:22:20.230Z,987.57
2018-05-14T10:23:20.425Z,987.47
2018-05-14T10:24:20.617Z,987.33
2018-05-14T10:25:20.811Z,987.34
2018-05-14T10:26:21.002Z,987.31
2018-05-14T10:27:21.197Z,987.23
2018-05-14T10:28:21.386Z,987.15
2018-05-14T10:29:21.573Z,987.19
2018-05-14T10:30:21.765Z,987.12
2018-05-14T10:31:21.962Z,987.16
2018-05-14T10:32:22.152Z,987.07
2018-05-14T10:33:22.343Z,986.98
2018-05-14T10:34:23.368Z,986.97
2018-05-14T10:35:22.672Z,986.95
2018-05-14T10:36:23.848Z,986.97
2018-05-14T10:37:23.774Z,986.96
2018-05-14T10:38:23.919Z,986.93
2018-05-14T10:39:23.463Z,986.93
2018-05-14T10:40:23.654Z,986.87
2018-05-14T10:41:24.905Z,986.87
2018-05-14T10:42:25.103Z,986.89
2018-05-14T10:43:24.881Z,986.85
2018-05-14T10:44:24.373Z,986.82
2018-05-14T10:45:24.575Z,986.87
2018-05-14T10:46:24.773Z,986.82
2018-05-14T10:47:24.979Z,986.88
2018-05-14T10:48:25.154Z,986.88
2018-05-14T10:49:25.345Z,986.80
2018-05-14T10:50:25.524Z,986.89
2018-05-14T10:51:25.718Z,986.85
2018-05-14T10:52:25.909Z,986.84
2018-05-14T10:53:26.091Z,986.87
2018-05-14T10:54:26.290Z,986.83
2018-05-14T10:55:26.480Z,986.83
2018-05-14T10:56:26.664Z,986.91
2018-05-14T10:57:26.863Z,986.87
2018-05-14T10:58:27.051Z,986.85
2018-05-14T10:59:27.255Z,986.91
2018-05-14T11:00:27.442Z,986.86
2018-05-14T11:01:27.701Z,986.83
2018-05-14T11:02:27.747Z,986.87
2018-05-14T11:03:27.943Z,986.85
2018-05-14T11:04:28.132Z,986.80
2018-05-14T11:05:28.336Z,986.77
2018-05-14T11:06:28.550Z,986.82
2018-05-14T11:07:28.844Z,986.87
2018-05-14T11:08:29.054Z,986.80
2018-05-14T11:09:29.827Z,986.85
2018-05-14T11:10:29.536Z,986.87
2018-05-14T11:11:29.602Z,986.83
2018-05-14T11:12:29.830Z,986.85
2018-05-14T11:13:30.446Z,986.96
2018-05-14T11:14:30.441Z,986.93
2018-05-14T11:15:30.866Z,986.84
2018-05-14T11:16:30.485Z,986.88
2018-05-14T11:17:30.417Z,986.95
2018-05-14T11:18:30.597Z,986.92
2018-05-14T11:19:30.855Z,986.91
2018-05-14T11:20:31.021Z,986.89
2018-05-14T11:21:31.263Z,986.93
2018-05-14T11:22:31.452Z,986.94
2018-05-14T11:23:31.630Z,986.83
2018-05-14T11:24:31.831Z,986.89
2018-05-14T11:25:32.053Z,986.93
2018-05-14T11:26:32.289Z,987.09
2018-05-14T11:27:32.578Z,986.92
2018-05-14T11:28:32.841Z,986.91
2018-05-14T11:29:33.164Z,986.85
2018-05-14T11:30:33.178Z,986.85
2018-05-14T11:31:33.489Z,986.81
2018-05-14T11:32:35.134Z,986.86
2018-05-14T11:33:33.790Z,986.78
2018-05-14T11:34:33.986Z,986.74
2018-05-14T11:35:34.150Z,986.87
2018-05-14T11:36:34.232Z,986.93
2018-05-14T11:37:34.424Z,986.88
2018-05-14T11:38:34.788Z,986.85
2018-05-14T11:39:34.950Z,986.93
2018-05-14T11:40:34.982Z,986.84
2018-05-14T11:41:35.168Z,986.84
2018-05-14T11:42:35.582Z,986.84
2018-05-14T11:43:35.537Z,986.84
2018-05-14T11:44:35.708Z,986.92
2018-05-14T11:45:36.080Z,986.96
2018-05-14T11:46:36.230Z,986.90
2018-05-14T11:47:36.303Z,986.81
2018-05-14T11:48:36.368Z,986.91
2018-05-14T11:49:36.611Z,986.83
2018-05-14T11:50:36.741Z,986.85
2018-05-14T11:51:36.934Z,986.96
2018-05-14T11:52:37.319Z,986.94
2018-05-14T11:53:37.425Z,986.95
2018-05-14T11:54:37.405Z,986.91
2018-05-14T11:55:37.603Z,986.85
2018-05-14T11:56:37.794Z,986.89
2018-05-14T11:57:37.973Z,986.90
2018-05-14T11:58:38.253Z,986.91
2018-05-14T11:59:38.331Z,986.83
2018-05-14T12:00:38.813Z,986.83
2018-05-14T12:01:38.745Z,986.85
2018-05-14T12:02:38.944Z,986.80
2018-05-14T12:03:39.197Z,986.91
2018-05-14T12:04:39.274Z,986.86
2018-05-14T12:05:39.493Z,986.82
2018-05-14T12:06:39.595Z,986.86
2018-05-14T12:07:39.804Z,986.87
2018-05-14T12:08:40.007Z,986.88
2018-05-14T12:09:40.194Z,986.93
2018-05-14T12:10:40.381Z,986.86
2018-05-14T12:11:40.793Z,986.81
2018-05-14T12:12:40.903Z,986.74
2018-05-14T12:13:41.102Z,986.75
2018-05-14T12:14:41.475Z,986.84
2018-05-14T12:15:42.468Z,986.74
2018-05-14T12:16:42.169Z,986.79
2018-05-14T12:17:42.494Z,986.77
2018-05-14T12:18:43.628Z,986.70
2018-05-14T12:19:42.459Z,986.65
2018-05-14T12:20:43.060Z,986.78
2018-05-14T12:21:43.515Z,986.71
2018-05-14T12:22:43.339Z,986.81
2018-05-14T12:23:43.765Z,986.81
2018-05-14T12:24:44.015Z,986.77
2018-05-14T12:25:42.963Z,986.78
2018-05-14T12:26:43.473Z,986.76
2018-05-14T12:27:43.289Z,986.75
2018-05-14T12:28:43.715Z,986.73
2018-05-14T12:29:43.733Z,986.75
2018-05-14T12:30:44.218Z,986.78